sensor_id;sensor_type;location;lat;lon;timestamp;P1;durP1;ratioP1;P2;durP2;ratioP2
15883;SDS011;8040;50.254;10.960;2024-02-26T00:00:37;395.75;;;87.22;;
15883;SDS011;8040;50.254;10.960;2024-02-26T00:03:02;404.17;;;88.22;;
15883;SDS011;8040;50.254;10.960;2024-02-26T00:05:28;409.38;;;89.72;;
15883;SDS011;8040;50.254;10.960;2024-02-26T00:07:53;408.75;;;89.72;;
15883;SDS011;8040;50.254;10.960;2024-02-26T00:10:18;408.73;;;89.90;;
15883;SDS011;8040;50.254;10.960;2024-02-26T00:12:44;406.55;;;89.38;;
15883;SDS011;8040;50.254;10.960;2024-02-26T00:15:09;407.77;;;89.13;;
15883;SDS011;8040;50.254;10.960;2024-02-26T00:17:35;401.15;;;88.07;;
15883;SDS011;8040;50.254;10.960;2024-02-26T00:20:02;400.03;;;88.53;;
15883;SDS011;8040;50.254;10.960;2024-02-26T00:22:30;409.63;;;91.30;;
15883;SDS011;8040;50.254;10.960;2024-02-26T00:24:56;397.02;;;87.50;;
15883;SDS011;8040;50.254;10.960;2024-02-26T00:27:21;407.17;;;89.90;;
15883;SDS011;8040;50.254;10.960;2024-02-26T00:29:47;396.00;;;87.53;;
15883;SDS011;8040;50.254;10.960;2024-02-26T00:32:12;403.93;;;88.50;;
15883;SDS011;8040;50.254;10.960;2024-02-26T00:34:37;411.40;;;90.23;;
15883;SDS011;8040;50.254;10.960;2024-02-26T00:37:03;411.93;;;90.17;;
15883;SDS011;8040;50.254;10.960;2024-02-26T00:39:28;415.20;;;91.47;;
15883;SDS011;8040;50.254;10.960;2024-02-26T00:41:54;404.30;;;88.27;;
15883;SDS011;8040;50.254;10.960;2024-02-26T00:44:19;417.30;;;91.63;;
15883;SDS011;8040;50.254;10.960;2024-02-26T00:46:45;403.88;;;88.85;;
15883;SDS011;8040;50.254;10.960;2024-02-26T00:49:10;399.23;;;87.90;;
15883;SDS011;8040;50.254;10.960;2024-02-26T00:51:35;406.10;;;89.40;;
15883;SDS011;8040;50.254;10.960;2024-02-26T00:54:01;401.10;;;87.83;;
15883;SDS011;8040;50.254;10.960;2024-02-26T00:56:27;406.63;;;88.70;;
15883;SDS011;8040;50.254;10.960;2024-02-26T00:58:52;406.53;;;89.30;;
15883;SDS011;8040;50.254;10.960;2024-02-26T01:01:17;405.23;;;88.93;;
15883;SDS011;8040;50.254;10.960;2024-02-26T01:03:43;407.73;;;89.27;;
15883;SDS011;8040;50.254;10.960;2024-02-26T01:06:08;405.33;;;88.20;;
15883;SDS011;8040;50.254;10.960;2024-02-26T01:08:34;402.40;;;87.17;;
15883;SDS011;8040;50.254;10.960;2024-02-26T01:11:00;397.23;;;85.88;;
15883;SDS011;8040;50.254;10.960;2024-02-26T01:13:26;406.57;;;88.70;;
15883;SDS011;8040;50.254;10.960;2024-02-26T01:15:52;406.48;;;88.43;;
15883;SDS011;8040;50.254;10.960;2024-02-26T01:18:17;408.05;;;89.13;;
15883;SDS011;8040;50.254;10.960;2024-02-26T01:20:43;405.52;;;88.40;;
15883;SDS011;8040;50.254;10.960;2024-02-26T01:23:08;402.87;;;87.43;;
15883;SDS011;8040;50.254;10.960;2024-02-26T01:25:34;389.93;;;83.50;;
15883;SDS011;8040;50.254;10.960;2024-02-26T01:27:59;406.13;;;89.03;;
15883;SDS011;8040;50.254;10.960;2024-02-26T01:30:25;403.23;;;87.83;;
15883;SDS011;8040;50.254;10.960;2024-02-26T01:32:50;404.47;;;88.00;;
15883;SDS011;8040;50.254;10.960;2024-02-26T01:35:15;398.63;;;85.57;;
15883;SDS011;8040;50.254;10.960;2024-02-26T01:37:41;412.40;;;89.83;;
15883;SDS011;8040;50.254;10.960;2024-02-26T01:40:07;405.25;;;87.88;;
15883;SDS011;8040;50.254;10.960;2024-02-26T01:42:34;403.00;;;87.75;;
15883;SDS011;8040;50.254;10.960;2024-02-26T01:45:01;404.63;;;88.60;;
15883;SDS011;8040;50.254;10.960;2024-02-26T01:47:26;406.52;;;89.35;;
15883;SDS011;8040;50.254;10.960;2024-02-26T01:49:52;406.70;;;88.28;;
15883;SDS011;8040;50.254;10.960;2024-02-26T01:52:18;415.57;;;90.47;;
15883;SDS011;8040;50.254;10.960;2024-02-26T01:54:46;407.00;;;88.55;;
15883;SDS011;8040;50.254;10.960;2024-02-26T01:57:11;400.17;;;87.30;;
15883;SDS011;8040;50.254;10.960;2024-02-26T01:59:38;411.17;;;88.45;;
15883;SDS011;8040;50.254;10.960;2024-02-26T02:02:05;421.63;;;93.25;;
15883;SDS011;8040;50.254;10.960;2024-02-26T02:04:35;407.20;;;88.17;;
15883;SDS011;8040;50.254;10.960;2024-02-26T02:07:01;413.98;;;89.85;;
15883;SDS011;8040;50.254;10.960;2024-02-26T02:09:28;409.85;;;88.28;;
15883;SDS011;8040;50.254;10.960;2024-02-26T02:11:53;408.73;;;88.28;;
15883;SDS011;8040;50.254;10.960;2024-02-26T02:14:19;417.63;;;90.05;;
15883;SDS011;8040;50.254;10.960;2024-02-26T02:16:45;409.52;;;88.60;;
15883;SDS011;8040;50.254;10.960;2024-02-26T02:19:12;405.65;;;87.78;;
15883;SDS011;8040;50.254;10.960;2024-02-26T02:21:37;414.53;;;88.73;;
15883;SDS011;8040;50.254;10.960;2024-02-26T02:24:02;412.37;;;89.63;;
15883;SDS011;8040;50.254;10.960;2024-02-26T02:26:28;410.98;;;87.60;;
15883;SDS011;8040;50.254;10.960;2024-02-26T02:28:53;411.35;;;88.47;;
15883;SDS011;8040;50.254;10.960;2024-02-26T02:31:19;413.17;;;88.43;;
15883;SDS011;8040;50.254;10.960;2024-02-26T02:33:44;416.20;;;89.82;;
15883;SDS011;8040;50.254;10.960;2024-02-26T02:36:10;405.02;;;86.93;;
15883;SDS011;8040;50.254;10.960;2024-02-26T02:38:37;414.83;;;87.78;;
15883;SDS011;8040;50.254;10.960;2024-02-26T02:41:03;406.70;;;88.03;;
15883;SDS011;8040;50.254;10.960;2024-02-26T02:43:28;413.60;;;89.70;;
15883;SDS011;8040;50.254;10.960;2024-02-26T02:45:54;409.17;;;88.90;;
15883;SDS011;8040;50.254;10.960;2024-02-26T02:48:19;414.33;;;88.80;;
15883;SDS011;8040;50.254;10.960;2024-02-26T02:50:44;407.10;;;87.60;;
15883;SDS011;8040;50.254;10.960;2024-02-26T02:53:10;413.23;;;89.90;;
15883;SDS011;8040;50.254;10.960;2024-02-26T02:55:35;413.67;;;87.83;;
15883;SDS011;8040;50.254;10.960;2024-02-26T02:58:01;408.60;;;87.73;;
15883;SDS011;8040;50.254;10.960;2024-02-26T03:00:27;398.45;;;86.15;;
15883;SDS011;8040;50.254;10.960;2024-02-26T03:02:52;413.25;;;90.45;;
15883;SDS011;8040;50.254;10.960;2024-02-26T03:05:18;404.02;;;87.15;;
15883;SDS011;8040;50.254;10.960;2024-02-26T03:07:43;415.37;;;89.47;;
15883;SDS011;8040;50.254;10.960;2024-02-26T03:10:09;405.20;;;86.63;;
15883;SDS011;8040;50.254;10.960;2024-02-26T03:12:34;405.47;;;87.97;;
15883;SDS011;8040;50.254;10.960;2024-02-26T03:15:00;407.93;;;88.30;;
15883;SDS011;8040;50.254;10.960;2024-02-26T03:17:28;409.60;;;88.75;;
15883;SDS011;8040;50.254;10.960;2024-02-26T03:19:54;408.50;;;87.83;;
15883;SDS011;8040;50.254;10.960;2024-02-26T03:22:20;405.50;;;88.18;;
15883;SDS011;8040;50.254;10.960;2024-02-26T03:24:45;401.03;;;86.40;;
15883;SDS011;8040;50.254;10.960;2024-02-26T03:27:11;405.10;;;87.53;;
15883;SDS011;8040;50.254;10.960;2024-02-26T03:29:37;408.20;;;87.90;;
15883;SDS011;8040;50.254;10.960;2024-02-26T03:32:03;407.30;;;88.05;;
15883;SDS011;8040;50.254;10.960;2024-02-26T03:34:33;403.15;;;86.75;;
15883;SDS011;8040;50.254;10.960;2024-02-26T03:37:04;409.95;;;88.75;;
15883;SDS011;8040;50.254;10.960;2024-02-26T03:39:29;408.67;;;88.82;;
15883;SDS011;8040;50.254;10.960;2024-02-26T03:41:55;414.73;;;89.73;;
15883;SDS011;8040;50.254;10.960;2024-02-26T03:44:20;403.13;;;86.57;;
15883;SDS011;8040;50.254;10.960;2024-02-26T03:46:46;408.03;;;87.87;;
15883;SDS011;8040;50.254;10.960;2024-02-26T03:49:12;399.15;;;86.57;;
15883;SDS011;8040;50.254;10.960;2024-02-26T03:51:38;408.60;;;89.30;;
15883;SDS011;8040;50.254;10.960;2024-02-26T03:54:04;385.10;;;84.13;;
15883;SDS011;8040;50.254;10.960;2024-02-26T03:56:29;401.17;;;88.90;;
15883;SDS011;8040;50.254;10.960;2024-02-26T03:58:55;402.80;;;88.70;;
15883;SDS011;8040;50.254;10.960;2024-02-26T04:01:20;391.87;;;85.43;;
15883;SDS011;8040;50.254;10.960;2024-02-26T04:03:46;399.87;;;88.63;;
15883;SDS011;8040;50.254;10.960;2024-02-26T04:06:11;393.00;;;87.00;;
15883;SDS011;8040;50.254;10.960;2024-02-26T04:08:39;398.75;;;88.45;;
15883;SDS011;8040;50.254;10.960;2024-02-26T04:11:05;403.02;;;89.63;;
15883;SDS011;8040;50.254;10.960;2024-02-26T04:13:35;393.25;;;87.63;;
15883;SDS011;8040;50.254;10.960;2024-02-26T04:16:03;387.67;;;86.90;;
15883;SDS011;8040;50.254;10.960;2024-02-26T04:18:29;404.67;;;89.63;;
15883;SDS011;8040;50.254;10.960;2024-02-26T04:20:54;398.33;;;87.07;;
15883;SDS011;8040;50.254;10.960;2024-02-26T04:23:20;412.60;;;90.90;;
15883;SDS011;8040;50.254;10.960;2024-02-26T04:25:45;391.93;;;88.20;;
15883;SDS011;8040;50.254;10.960;2024-02-26T04:28:11;403.30;;;89.13;;
15883;SDS011;8040;50.254;10.960;2024-02-26T04:30:37;414.25;;;91.38;;
15883;SDS011;8040;50.254;10.960;2024-02-26T04:33:03;403.77;;;89.72;;
15883;SDS011;8040;50.254;10.960;2024-02-26T04:35:29;401.52;;;89.75;;
15883;SDS011;8040;50.254;10.960;2024-02-26T04:37:55;420.55;;;93.13;;
15883;SDS011;8040;50.254;10.960;2024-02-26T04:40:20;413.73;;;94.25;;
15883;SDS011;8040;50.254;10.960;2024-02-26T04:42:46;431.00;;;99.50;;
15883;SDS011;8040;50.254;10.960;2024-02-26T04:45:12;416.63;;;92.67;;
15883;SDS011;8040;50.254;10.960;2024-02-26T04:47:37;422.20;;;93.37;;
15883;SDS011;8040;50.254;10.960;2024-02-26T04:50:03;420.80;;;95.27;;
15883;SDS011;8040;50.254;10.960;2024-02-26T04:52:28;411.42;;;93.88;;
15883;SDS011;8040;50.254;10.960;2024-02-26T04:54:54;414.27;;;93.03;;
15883;SDS011;8040;50.254;10.960;2024-02-26T04:57:20;414.80;;;94.67;;
15883;SDS011;8040;50.254;10.960;2024-02-26T04:59:46;403.05;;;93.40;;
15883;SDS011;8040;50.254;10.960;2024-02-26T05:02:12;431.07;;;97.87;;
15883;SDS011;8040;50.254;10.960;2024-02-26T05:04:37;421.10;;;94.53;;
15883;SDS011;8040;50.254;10.960;2024-02-26T05:07:03;425.25;;;96.10;;
15883;SDS011;8040;50.254;10.960;2024-02-26T05:09:29;416.83;;;93.23;;
15883;SDS011;8040;50.254;10.960;2024-02-26T05:11:54;433.77;;;98.93;;
15883;SDS011;8040;50.254;10.960;2024-02-26T05:14:20;431.23;;;96.80;;
15883;SDS011;8040;50.254;10.960;2024-02-26T05:16:45;425.80;;;96.20;;
15883;SDS011;8040;50.254;10.960;2024-02-26T05:19:11;430.17;;;96.82;;
15883;SDS011;8040;50.254;10.960;2024-02-26T05:21:36;436.02;;;98.80;;
15883;SDS011;8040;50.254;10.960;2024-02-26T05:24:02;425.47;;;94.67;;
15883;SDS011;8040;50.254;10.960;2024-02-26T05:26:27;426.43;;;95.47;;
15883;SDS011;8040;50.254;10.960;2024-02-26T05:28:53;429.93;;;96.33;;
15883;SDS011;8040;50.254;10.960;2024-02-26T05:31:18;430.70;;;97.17;;
15883;SDS011;8040;50.254;10.960;2024-02-26T05:33:44;440.63;;;98.83;;
15883;SDS011;8040;50.254;10.960;2024-02-26T05:36:09;430.70;;;98.03;;
15883;SDS011;8040;50.254;10.960;2024-02-26T05:38:35;445.30;;;102.70;;
15883;SDS011;8040;50.254;10.960;2024-02-26T05:41:00;434.10;;;97.63;;
15883;SDS011;8040;50.254;10.960;2024-02-26T05:43:26;439.08;;;101.18;;
15883;SDS011;8040;50.254;10.960;2024-02-26T05:45:52;431.93;;;98.27;;
15883;SDS011;8040;50.254;10.960;2024-02-26T05:48:18;437.08;;;100.57;;
15883;SDS011;8040;50.254;10.960;2024-02-26T05:50:47;436.20;;;99.77;;
15883;SDS011;8040;50.254;10.960;2024-02-26T05:53:13;438.45;;;101.22;;
15883;SDS011;8040;50.254;10.960;2024-02-26T05:55:38;445.35;;;102.32;;
15883;SDS011;8040;50.254;10.960;2024-02-26T05:58:03;427.98;;;96.95;;
15883;SDS011;8040;50.254;10.960;2024-02-26T06:00:32;457.87;;;105.13;;
15883;SDS011;8040;50.254;10.960;2024-02-26T06:02:57;403.50;;;92.53;;
15883;SDS011;8040;50.254;10.960;2024-02-26T06:05:23;439.83;;;100.97;;
15883;SDS011;8040;50.254;10.960;2024-02-26T06:07:48;449.10;;;104.07;;
15883;SDS011;8040;50.254;10.960;2024-02-26T06:10:14;479.00;;;111.03;;
15883;SDS011;8040;50.254;10.960;2024-02-26T06:12:39;484.53;;;113.80;;
15883;SDS011;8040;50.254;10.960;2024-02-26T06:15:05;488.93;;;114.27;;
15883;SDS011;8040;50.254;10.960;2024-02-26T06:17:31;548.25;;;130.38;;
15883;SDS011;8040;50.254;10.960;2024-02-26T06:19:56;498.77;;;116.67;;
15883;SDS011;8040;50.254;10.960;2024-02-26T06:22:24;502.77;;;116.78;;
15883;SDS011;8040;50.254;10.960;2024-02-26T06:24:50;506.00;;;120.30;;
15883;SDS011;8040;50.254;10.960;2024-02-26T06:27:16;500.40;;;117.13;;
15883;SDS011;8040;50.254;10.960;2024-02-26T06:29:42;535.15;;;127.95;;
15883;SDS011;8040;50.254;10.960;2024-02-26T06:32:07;481.42;;;114.55;;
15883;SDS011;8040;50.254;10.960;2024-02-26T06:34:33;504.05;;;117.57;;
15883;SDS011;8040;50.254;10.960;2024-02-26T06:36:58;478.80;;;121.07;;
15883;SDS011;8040;50.254;10.960;2024-02-26T06:39:23;484.08;;;113.40;;
15883;SDS011;8040;50.254;10.960;2024-02-26T06:41:49;452.70;;;106.40;;
15883;SDS011;8040;50.254;10.960;2024-02-26T06:44:14;484.52;;;114.40;;
15883;SDS011;8040;50.254;10.960;2024-02-26T06:46:40;495.90;;;119.28;;
15883;SDS011;8040;50.254;10.960;2024-02-26T06:49:05;470.33;;;112.03;;
15883;SDS011;8040;50.254;10.960;2024-02-26T06:51:30;484.67;;;115.43;;
15883;SDS011;8040;50.254;10.960;2024-02-26T06:53:56;460.30;;;108.90;;
15883;SDS011;8040;50.254;10.960;2024-02-26T06:56:21;488.87;;;115.83;;
15883;SDS011;8040;50.254;10.960;2024-02-26T06:58:47;475.97;;;114.47;;
15883;SDS011;8040;50.254;10.960;2024-02-26T07:01:12;483.40;;;115.47;;
15883;SDS011;8040;50.254;10.960;2024-02-26T07:03:39;482.97;;;118.20;;
15883;SDS011;8040;50.254;10.960;2024-02-26T07:06:05;464.52;;;112.45;;
15883;SDS011;8040;50.254;10.960;2024-02-26T07:08:32;457.20;;;110.95;;
15883;SDS011;8040;50.254;10.960;2024-02-26T07:10:59;454.60;;;111.05;;
15883;SDS011;8040;50.254;10.960;2024-02-26T07:13:24;463.98;;;124.53;;
15883;SDS011;8040;50.254;10.960;2024-02-26T07:15:49;445.20;;;106.20;;
15883;SDS011;8040;50.254;10.960;2024-02-26T07:18:15;439.60;;;106.43;;
15883;SDS011;8040;50.254;10.960;2024-02-26T07:20:40;460.90;;;116.63;;
15883;SDS011;8040;50.254;10.960;2024-02-26T07:23:08;435.08;;;106.00;;
15883;SDS011;8040;50.254;10.960;2024-02-26T07:25:33;440.00;;;106.17;;
15883;SDS011;8040;50.254;10.960;2024-02-26T07:27:59;437.93;;;105.67;;
15883;SDS011;8040;50.254;10.960;2024-02-26T07:30:24;442.17;;;108.87;;
15883;SDS011;8040;50.254;10.960;2024-02-26T07:32:59;447.30;;;112.53;;
15883;SDS011;8040;50.254;10.960;2024-02-26T07:35:24;490.45;;;125.10;;
15883;SDS011;8040;50.254;10.960;2024-02-26T07:37:50;439.53;;;105.43;;
15883;SDS011;8040;50.254;10.960;2024-02-26T07:40:15;425.17;;;105.10;;
15883;SDS011;8040;50.254;10.960;2024-02-26T07:42:41;420.33;;;105.37;;
15883;SDS011;8040;50.254;10.960;2024-02-26T07:45:06;433.27;;;107.17;;
15883;SDS011;8040;50.254;10.960;2024-02-26T07:47:32;436.25;;;108.00;;
15883;SDS011;8040;50.254;10.960;2024-02-26T07:50:01;443.63;;;107.38;;
15883;SDS011;8040;50.254;10.960;2024-02-26T07:52:26;461.10;;;112.07;;
15883;SDS011;8040;50.254;10.960;2024-02-26T07:54:52;450.87;;;110.43;;
15883;SDS011;8040;50.254;10.960;2024-02-26T07:57:17;449.87;;;111.57;;
15883;SDS011;8040;50.254;10.960;2024-02-26T07:59:46;414.67;;;102.40;;
15883;SDS011;8040;50.254;10.960;2024-02-26T08:02:14;435.33;;;104.43;;
15883;SDS011;8040;50.254;10.960;2024-02-26T08:04:40;448.77;;;110.00;;
15883;SDS011;8040;50.254;10.960;2024-02-26T08:07:06;430.70;;;106.93;;
15883;SDS011;8040;50.254;10.960;2024-02-26T08:09:31;479.27;;;118.70;;
15883;SDS011;8040;50.254;10.960;2024-02-26T08:11:56;465.73;;;118.07;;
15883;SDS011;8040;50.254;10.960;2024-02-26T08:14:22;464.80;;;115.13;;
15883;SDS011;8040;50.254;10.960;2024-02-26T08:16:47;446.10;;;109.80;;
15883;SDS011;8040;50.254;10.960;2024-02-26T08:19:13;462.73;;;114.78;;
15883;SDS011;8040;50.254;10.960;2024-02-26T08:21:40;455.13;;;113.70;;
15883;SDS011;8040;50.254;10.960;2024-02-26T08:24:06;458.92;;;113.15;;
15883;SDS011;8040;50.254;10.960;2024-02-26T08:26:32;436.40;;;104.67;;
15883;SDS011;8040;50.254;10.960;2024-02-26T08:28:57;423.53;;;102.13;;
15883;SDS011;8040;50.254;10.960;2024-02-26T08:31:23;431.02;;;105.30;;
15883;SDS011;8040;50.254;10.960;2024-02-26T08:33:48;446.70;;;108.97;;
15883;SDS011;8040;50.254;10.960;2024-02-26T08:36:14;425.03;;;105.90;;
15883;SDS011;8040;50.254;10.960;2024-02-26T08:38:39;424.03;;;102.73;;
15883;SDS011;8040;50.254;10.960;2024-02-26T08:41:05;419.43;;;102.30;;
15883;SDS011;8040;50.254;10.960;2024-02-26T08:43:30;442.70;;;106.63;;
15883;SDS011;8040;50.254;10.960;2024-02-26T08:45:56;446.47;;;108.20;;
15883;SDS011;8040;50.254;10.960;2024-02-26T08:48:22;581.83;;;149.02;;
15883;SDS011;8040;50.254;10.960;2024-02-26T08:50:48;445.43;;;109.80;;
15883;SDS011;8040;50.254;10.960;2024-02-26T08:53:13;458.50;;;114.37;;
15883;SDS011;8040;50.254;10.960;2024-02-26T08:55:38;446.13;;;110.17;;
15883;SDS011;8040;50.254;10.960;2024-02-26T08:58:04;464.23;;;114.13;;
15883;SDS011;8040;50.254;10.960;2024-02-26T09:00:29;446.57;;;109.17;;
15883;SDS011;8040;50.254;10.960;2024-02-26T09:02:56;449.90;;;110.55;;
15883;SDS011;8040;50.254;10.960;2024-02-26T09:05:21;466.53;;;116.57;;
15883;SDS011;8040;50.254;10.960;2024-02-26T09:07:47;456.40;;;113.80;;
15883;SDS011;8040;50.254;10.960;2024-02-26T09:10:12;470.27;;;119.13;;
15883;SDS011;8040;50.254;10.960;2024-02-26T09:12:38;447.70;;;111.60;;
15883;SDS011;8040;50.254;10.960;2024-02-26T09:15:05;511.17;;;126.22;;
15883;SDS011;8040;50.254;10.960;2024-02-26T09:17:33;444.47;;;109.03;;
15883;SDS011;8040;50.254;10.960;2024-02-26T09:19:58;416.57;;;104.50;;
15883;SDS011;8040;50.254;10.960;2024-02-26T09:22:24;449.33;;;112.53;;
15883;SDS011;8040;50.254;10.960;2024-02-26T09:24:49;434.38;;;109.78;;
15883;SDS011;8040;50.254;10.960;2024-02-26T09:27:17;447.88;;;114.20;;
15883;SDS011;8040;50.254;10.960;2024-02-26T09:29:42;447.40;;;112.32;;
15883;SDS011;8040;50.254;10.960;2024-02-26T09:32:08;445.77;;;112.25;;
15883;SDS011;8040;50.254;10.960;2024-02-26T09:34:33;431.77;;;108.90;;
15883;SDS011;8040;50.254;10.960;2024-02-26T09:36:59;468.20;;;118.50;;
15883;SDS011;8040;50.254;10.960;2024-02-26T09:39:25;476.80;;;119.72;;
15883;SDS011;8040;50.254;10.960;2024-02-26T09:41:51;461.90;;;116.07;;
15883;SDS011;8040;50.254;10.960;2024-02-26T09:44:20;479.10;;;120.57;;
15883;SDS011;8040;50.254;10.960;2024-02-26T09:46:47;438.42;;;113.15;;
15883;SDS011;8040;50.254;10.960;2024-02-26T09:49:14;636.30;;;176.27;;
15883;SDS011;8040;50.254;10.960;2024-02-26T09:51:41;438.65;;;112.03;;
15883;SDS011;8040;50.254;10.960;2024-02-26T09:54:07;444.65;;;112.93;;
15883;SDS011;8040;50.254;10.960;2024-02-26T09:56:35;453.67;;;118.47;;
15883;SDS011;8040;50.254;10.960;2024-02-26T09:59:04;519.30;;;136.27;;
15883;SDS011;8040;50.254;10.960;2024-02-26T10:01:35;489.88;;;126.75;;
15883;SDS011;8040;50.254;10.960;2024-02-26T10:04:03;484.80;;;125.60;;
15883;SDS011;8040;50.254;10.960;2024-02-26T10:06:29;460.10;;;118.47;;
15883;SDS011;8040;50.254;10.960;2024-02-26T10:08:58;444.05;;;114.25;;
15883;SDS011;8040;50.254;10.960;2024-02-26T10:11:25;460.10;;;118.68;;
15883;SDS011;8040;50.254;10.960;2024-02-26T10:13:50;453.20;;;115.97;;
15883;SDS011;8040;50.254;10.960;2024-02-26T10:16:25;444.93;;;113.50;;
15883;SDS011;8040;50.254;10.960;2024-02-26T10:18:53;447.83;;;116.80;;
15883;SDS011;8040;50.254;10.960;2024-02-26T10:21:20;477.27;;;125.30;;
15883;SDS011;8040;50.254;10.960;2024-02-26T10:23:46;480.25;;;123.85;;
15883;SDS011;8040;50.254;10.960;2024-02-26T10:26:15;445.52;;;117.05;;
15883;SDS011;8040;50.254;10.960;2024-02-26T10:28:42;471.25;;;124.90;;
15883;SDS011;8040;50.254;10.960;2024-02-26T10:31:09;526.28;;;138.30;;
15883;SDS011;8040;50.254;10.960;2024-02-26T10:33:35;473.13;;;124.80;;
15883;SDS011;8040;50.254;10.960;2024-02-26T10:36:02;456.90;;;120.72;;
15883;SDS011;8040;50.254;10.960;2024-02-26T10:38:29;447.83;;;118.10;;
15883;SDS011;8040;50.254;10.960;2024-02-26T10:40:55;471.35;;;123.18;;
15883;SDS011;8040;50.254;10.960;2024-02-26T10:43:20;456.40;;;118.57;;
15883;SDS011;8040;50.254;10.960;2024-02-26T10:45:45;444.07;;;116.73;;
15883;SDS011;8040;50.254;10.960;2024-02-26T10:48:13;466.90;;;121.82;;
15883;SDS011;8040;50.254;10.960;2024-02-26T10:50:39;460.63;;;121.97;;
15883;SDS011;8040;50.254;10.960;2024-02-26T10:53:13;472.05;;;127.30;;
15883;SDS011;8040;50.254;10.960;2024-02-26T10:55:43;469.20;;;125.22;;
15883;SDS011;8040;50.254;10.960;2024-02-26T10:58:13;465.90;;;123.95;;
15883;SDS011;8040;50.254;10.960;2024-02-26T11:00:40;455.00;;;124.10;;
15883;SDS011;8040;50.254;10.960;2024-02-26T11:03:06;476.23;;;128.57;;
15883;SDS011;8040;50.254;10.960;2024-02-26T11:05:35;472.38;;;127.30;;
15883;SDS011;8040;50.254;10.960;2024-02-26T11:08:01;465.95;;;125.65;;
15883;SDS011;8040;50.254;10.960;2024-02-26T11:10:28;462.27;;;123.65;;
15883;SDS011;8040;50.254;10.960;2024-02-26T11:12:55;458.42;;;123.78;;
15883;SDS011;8040;50.254;10.960;2024-02-26T11:15:25;465.95;;;128.23;;
15883;SDS011;8040;50.254;10.960;2024-02-26T11:17:52;475.15;;;129.05;;
15883;SDS011;8040;50.254;10.960;2024-02-26T11:20:19;467.40;;;127.80;;
15883;SDS011;8040;50.254;10.960;2024-02-26T11:22:45;485.80;;;133.95;;
15883;SDS011;8040;50.254;10.960;2024-02-26T11:25:11;474.90;;;128.63;;
15883;SDS011;8040;50.254;10.960;2024-02-26T11:27:45;488.42;;;133.45;;
15883;SDS011;8040;50.254;10.960;2024-02-26T11:30:14;489.37;;;132.73;;
15883;SDS011;8040;50.254;10.960;2024-02-26T11:32:43;453.85;;;123.70;;
15883;SDS011;8040;50.254;10.960;2024-02-26T11:35:10;468.48;;;126.18;;
15883;SDS011;8040;50.254;10.960;2024-02-26T11:37:38;472.75;;;131.60;;
15883;SDS011;8040;50.254;10.960;2024-02-26T11:40:04;469.02;;;126.80;;
15883;SDS011;8040;50.254;10.960;2024-02-26T11:42:36;481.40;;;129.38;;
15883;SDS011;8040;50.254;10.960;2024-02-26T11:48:13;467.95;;;127.38;;
15883;SDS011;8040;50.254;10.960;2024-02-26T11:50:46;477.63;;;129.47;;
15883;SDS011;8040;50.254;10.960;2024-02-26T11:53:19;491.73;;;133.23;;
15883;SDS011;8040;50.254;10.960;2024-02-26T11:55:44;458.60;;;125.78;;
15883;SDS011;8040;50.254;10.960;2024-02-26T11:58:10;476.33;;;130.97;;
15883;SDS011;8040;50.254;10.960;2024-02-26T12:00:35;482.63;;;133.40;;
15883;SDS011;8040;50.254;10.960;2024-02-26T12:03:01;479.55;;;132.10;;
15883;SDS011;8040;50.254;10.960;2024-02-26T12:05:32;527.55;;;147.27;;
15883;SDS011;8040;50.254;10.960;2024-02-26T12:08:00;544.55;;;155.57;;
15883;SDS011;8040;50.254;10.960;2024-02-26T12:10:31;560.40;;;158.20;;
15883;SDS011;8040;50.254;10.960;2024-02-26T12:13:07;548.13;;;152.25;;
15883;SDS011;8040;50.254;10.960;2024-02-26T12:15:38;542.90;;;151.98;;
15883;SDS011;8040;50.254;10.960;2024-02-26T12:18:08;559.22;;;156.07;;
15883;SDS011;8040;50.254;10.960;2024-02-26T12:20:35;524.77;;;146.57;;
15883;SDS011;8040;50.254;10.960;2024-02-26T12:23:04;526.67;;;144.38;;
15883;SDS011;8040;50.254;10.960;2024-02-26T12:25:31;520.80;;;144.82;;
15883;SDS011;8040;50.254;10.960;2024-02-26T12:27:58;512.03;;;144.23;;
15883;SDS011;8040;50.254;10.960;2024-02-26T12:30:24;468.58;;;131.43;;
15883;SDS011;8040;50.254;10.960;2024-02-26T12:32:54;505.85;;;144.63;;
15883;SDS011;8040;50.254;10.960;2024-02-26T12:35:22;510.20;;;140.60;;
15883;SDS011;8040;50.254;10.960;2024-02-26T12:37:49;495.37;;;140.60;;
15883;SDS011;8040;50.254;10.960;2024-02-26T12:40:16;533.05;;;150.70;;
15883;SDS011;8040;50.254;10.960;2024-02-26T12:42:42;460.02;;;133.43;;
15883;SDS011;8040;50.254;10.960;2024-02-26T12:45:09;476.70;;;134.45;;
15883;SDS011;8040;50.254;10.960;2024-02-26T12:47:40;481.67;;;139.88;;
15883;SDS011;8040;50.254;10.960;2024-02-26T12:50:06;488.70;;;139.05;;
15883;SDS011;8040;50.254;10.960;2024-02-26T12:52:54;475.13;;;143.15;;
15883;SDS011;8040;50.254;10.960;2024-02-26T12:55:19;487.00;;;135.55;;
15883;SDS011;8040;50.254;10.960;2024-02-26T12:57:46;482.70;;;136.83;;
15883;SDS011;8040;50.254;10.960;2024-02-26T13:00:15;474.55;;;139.77;;
15883;SDS011;8040;50.254;10.960;2024-02-26T13:02:43;475.52;;;135.75;;
15883;SDS011;8040;50.254;10.960;2024-02-26T13:05:10;489.30;;;139.02;;
15883;SDS011;8040;50.254;10.960;2024-02-26T13:07:45;487.70;;;139.88;;
15883;SDS011;8040;50.254;10.960;2024-02-26T13:10:18;453.85;;;130.27;;
15883;SDS011;8040;50.254;10.960;2024-02-26T13:12:44;473.83;;;134.35;;
15883;SDS011;8040;50.254;10.960;2024-02-26T13:15:15;497.93;;;142.13;;
15883;SDS011;8040;50.254;10.960;2024-02-26T13:17:44;494.60;;;143.82;;
15883;SDS011;8040;50.254;10.960;2024-02-26T13:20:10;496.55;;;142.00;;
15883;SDS011;8040;50.254;10.960;2024-02-26T13:22:36;487.47;;;138.60;;
15883;SDS011;8040;50.254;10.960;2024-02-26T13:25:02;440.00;;;127.35;;
15883;SDS011;8040;50.254;10.960;2024-02-26T13:27:28;474.40;;;138.47;;
15883;SDS011;8040;50.254;10.960;2024-02-26T13:32:32;443.52;;;135.00;;
15883;SDS011;8040;50.254;10.960;2024-02-26T13:35:08;473.77;;;140.90;;
15883;SDS011;8040;50.254;10.960;2024-02-26T13:37:35;451.37;;;132.27;;
15883;SDS011;8040;50.254;10.960;2024-02-26T13:40:04;447.85;;;130.40;;
15883;SDS011;8040;50.254;10.960;2024-02-26T13:42:30;578.75;;;173.55;;
15883;SDS011;8040;50.254;10.960;2024-02-26T13:44:56;462.67;;;136.60;;
15883;SDS011;8040;50.254;10.960;2024-02-26T13:47:21;450.13;;;131.93;;
15883;SDS011;8040;50.254;10.960;2024-02-26T13:49:46;450.95;;;131.10;;
15883;SDS011;8040;50.254;10.960;2024-02-26T13:52:12;434.77;;;127.53;;
15883;SDS011;8040;50.254;10.960;2024-02-26T13:54:37;437.67;;;130.38;;
15883;SDS011;8040;50.254;10.960;2024-02-26T13:57:05;466.10;;;139.10;;
15883;SDS011;8040;50.254;10.960;2024-02-26T13:59:30;481.33;;;143.40;;
15883;SDS011;8040;50.254;10.960;2024-02-26T14:01:55;483.17;;;141.37;;